createdAt,value
2019-02-19T00:00:47.640Z,22.03
2019-02-19T00:03:54.988Z,21.10
2019-02-19T00:07:01.294Z,19.10
2019-02-19T00:10:07.875Z,21.67
2019-02-19T00:13:15.278Z,17.60
2019-02-19T00:16:22.092Z,15.13
2019-02-19T00:19:28.690Z,17.23
2019-02-19T00:22:35.271Z,13.30
2019-02-19T00:25:42.000Z,13.30
2019-02-19T00:28:48.476Z,16.70
2019-02-19T00:31:55.175Z,15.27
2019-02-19T00:35:01.664Z,16.67
2019-02-19T00:38:08.989Z,13.83
2019-02-19T00:41:16.029Z,16.40
2019-02-19T00:44:23.061Z,16.70
2019-02-19T00:47:29.821Z,15.30
2019-02-19T00:50:36.760Z,19.10
2019-02-19T00:53:43.427Z,14.07
2019-02-19T00:56:49.835Z,11.70
2019-02-19T00:59:56.732Z,11.70
2019-02-19T01:03:05.099Z,13.00
2019-02-19T01:06:11.871Z,12.40
2019-02-19T01:09:18.595Z,9.83
2019-02-19T01:12:25.069Z,16.13
2019-02-19T01:15:31.593Z,11.20
2019-02-19T01:18:37.929Z,10.83
2019-02-19T01:21:44.507Z,10.43
2019-02-19T01:24:50.776Z,13.90
2019-02-19T01:27:57.864Z,9.03
2019-02-19T01:31:04.511Z,8.70
2019-02-19T01:34:10.899Z,6.10
2019-02-19T01:37:17.453Z,11.90
2019-02-19T01:40:24.316Z,6.67
2019-02-19T01:43:30.926Z,9.07
2019-02-19T01:46:39.644Z,6.53
2019-02-19T01:49:45.894Z,12.83
2019-02-19T01:52:52.630Z,13.43
2019-02-19T01:55:58.981Z,7.50
2019-02-19T01:59:05.188Z,5.40
2019-02-19T02:02:11.643Z,10.00
2019-02-19T02:05:17.912Z,5.40
2019-02-19T02:08:24.330Z,5.37
2019-02-19T02:11:30.892Z,7.87
2019-02-19T02:14:37.894Z,6.63
2019-02-19T02:17:44.376Z,4.97
2019-02-19T02:20:50.625Z,14.23
2019-02-19T02:23:57.304Z,10.33
2019-02-19T02:27:03.477Z,5.70
2019-02-19T02:30:09.912Z,6.73
2019-02-19T02:33:16.393Z,9.77
2019-02-19T02:36:22.974Z,10.40
2019-02-19T02:39:29.922Z,9.60
2019-02-19T02:42:36.319Z,7.87
2019-02-19T02:45:53.059Z,8.90
2019-02-19T02:48:51.854Z,10.40
2019-02-19T02:51:58.531Z,9.53
2019-02-19T02:55:05.237Z,15.20
2019-02-19T02:58:11.979Z,7.43
2019-02-19T03:01:18.218Z,8.93
2019-02-19T03:04:24.871Z,8.97
2019-02-19T03:07:43.118Z,7.93
2019-02-19T03:10:49.679Z,8.13
2019-02-19T03:13:56.077Z,6.63
2019-02-19T03:17:02.575Z,8.40
2019-02-19T03:20:09.480Z,9.30
2019-02-19T03:23:15.968Z,11.70
2019-02-19T03:26:22.336Z,8.03
2019-02-19T03:29:28.643Z,5.77
2019-02-19T03:32:35.149Z,10.40
2019-02-19T03:35:41.521Z,8.57
2019-02-19T03:38:48.073Z,5.77
2019-02-19T03:41:54.621Z,7.00
2019-02-19T03:45:01.053Z,9.83
2019-02-19T03:48:08.011Z,10.00
2019-02-19T03:51:14.477Z,5.97
2019-02-19T03:54:20.934Z,9.40
2019-02-19T03:57:27.571Z,7.97
2019-02-19T04:00:34.119Z,6.23
2019-02-19T04:03:40.867Z,8.13
2019-02-19T04:06:47.334Z,6.20
2019-02-19T04:09:53.842Z,10.27
2019-02-19T04:13:00.986Z,6.03
2019-02-19T04:16:07.506Z,10.20
2019-02-19T04:19:14.187Z,5.27
2019-02-19T04:22:20.629Z,6.33
2019-02-19T04:25:26.950Z,9.63
2019-02-19T04:28:33.281Z,7.77
2019-02-19T04:31:40.165Z,6.47
2019-02-19T04:34:46.397Z,9.20
2019-02-19T04:37:52.913Z,7.17
2019-02-19T04:40:59.602Z,4.40
2019-02-19T04:44:05.962Z,6.93
2019-02-19T04:47:12.762Z,5.63
2019-02-19T04:50:19.802Z,9.10
2019-02-19T04:53:26.653Z,11.73
2019-02-19T04:56:33.372Z,5.03
2019-02-19T04:59:40.596Z,5.53
2019-02-19T05:02:47.364Z,5.80
2019-02-19T05:05:53.900Z,5.83
2019-02-19T05:09:00.680Z,6.20
2019-02-19T05:12:08.026Z,5.00
2019-02-19T05:15:14.721Z,4.33
2019-02-19T05:18:21.007Z,7.33
2019-02-19T05:21:28.454Z,7.20
2019-02-19T05:24:35.554Z,6.87
2019-02-19T05:27:43.369Z,4.90
2019-02-19T05:30:49.956Z,6.10
2019-02-19T05:33:56.578Z,6.20
2019-02-19T05:37:03.359Z,3.90
2019-02-19T05:40:10.487Z,6.53
2019-02-19T05:43:16.963Z,9.23
2019-02-19T05:46:23.307Z,6.30
2019-02-19T05:49:29.665Z,7.80
2019-02-19T05:52:36.253Z,3.70
2019-02-19T05:55:42.524Z,7.00
2019-02-19T05:58:49.182Z,4.87
2019-02-19T06:01:55.503Z,4.57
2019-02-19T06:05:02.220Z,4.93
2019-02-19T06:08:08.517Z,5.03
2019-02-19T06:11:15.576Z,5.90
2019-02-19T06:14:22.263Z,5.03
2019-02-19T06:17:28.656Z,4.90
2019-02-19T06:20:35.284Z,8.83
2019-02-19T06:23:41.800Z,7.93
2019-02-19T06:26:48.454Z,5.17
2019-02-19T06:29:54.956Z,10.50
2019-02-19T06:33:01.243Z,5.10
2019-02-19T06:36:08.178Z,6.30
2019-02-19T06:39:14.938Z,6.60
2019-02-19T06:42:23.347Z,6.23
2019-02-19T06:45:29.535Z,7.63
2019-02-19T06:48:35.867Z,7.13
2019-02-19T06:51:43.142Z,8.90
2019-02-19T06:54:49.596Z,12.60
2019-02-19T06:57:56.161Z,8.87
2019-02-19T07:01:02.817Z,9.40
2019-02-19T07:04:16.082Z,7.60
2019-02-19T07:07:22.631Z,11.07
2019-02-19T07:10:29.126Z,12.10
2019-02-19T07:13:35.926Z,10.23
2019-02-19T07:16:43.079Z,10.87
2019-02-19T07:19:49.340Z,11.80
2019-02-19T07:22:56.116Z,13.63
2019-02-19T07:26:02.968Z,8.70
2019-02-19T07:29:09.644Z,9.47
2019-02-19T07:32:16.285Z,13.10
2019-02-19T07:35:22.636Z,8.60
2019-02-19T07:38:29.019Z,8.17
2019-02-19T07:41:35.811Z,7.53
2019-02-19T07:44:42.098Z,10.80
2019-02-19T07:47:48.953Z,8.57
2019-02-19T07:50:55.249Z,7.37
2019-02-19T07:54:01.560Z,8.90
2019-02-19T07:57:08.279Z,11.57
2019-02-19T08:00:15.533Z,9.77
2019-02-19T08:03:22.123Z,9.13
2019-02-19T08:06:28.545Z,10.67
2019-02-19T08:09:35.320Z,10.80
2019-02-19T08:12:42.877Z,16.17
2019-02-19T08:15:50.180Z,16.13
2019-02-19T08:18:57.028Z,9.60
2019-02-19T08:22:04.242Z,11.83
2019-02-19T08:25:11.156Z,14.80
2019-02-19T08:28:18.185Z,8.47
2019-02-19T08:31:24.911Z,7.67
2019-02-19T08:34:31.644Z,13.80
2019-02-19T08:37:39.188Z,9.63
2019-02-19T08:40:46.417Z,10.40
2019-02-19T08:43:52.757Z,10.77
2019-02-19T08:46:59.266Z,8.00
2019-02-19T08:50:05.861Z,8.03
2019-02-19T08:53:12.295Z,9.20
2019-02-19T08:56:18.823Z,14.80
2019-02-19T08:59:25.124Z,11.20
2019-02-19T09:02:31.922Z,10.67
2019-02-19T09:05:38.634Z,9.07
2019-02-19T09:08:45.351Z,10.03
2019-02-19T09:11:51.658Z,13.30
2019-02-19T09:14:58.596Z,11.00
2019-02-19T09:18:05.084Z,13.97
2019-02-19T09:21:11.836Z,13.07
2019-02-19T09:24:18.746Z,13.97
2019-02-19T09:27:25.889Z,11.40
2019-02-19T09:30:32.382Z,10.53
2019-02-19T09:33:39.088Z,11.30
2019-02-19T09:36:45.873Z,11.53
2019-02-19T09:39:52.200Z,10.43
2019-02-19T09:42:58.727Z,11.73
2019-02-19T09:46:05.506Z,12.07
2019-02-19T09:49:11.853Z,10.20
2019-02-19T09:52:18.676Z,10.43
2019-02-19T09:55:25.438Z,13.00
2019-02-19T09:58:32.075Z,12.70
2019-02-19T10:01:39.083Z,13.10
2019-02-19T10:04:45.855Z,17.80
2019-02-19T10:07:52.658Z,12.77
2019-02-19T10:10:59.289Z,14.50
2019-02-19T10:14:06.447Z,14.20
2019-02-19T10:17:16.130Z,14.33
2019-02-19T10:20:22.725Z,14.00
2019-02-19T10:23:29.382Z,11.00
2019-02-19T10:26:36.782Z,15.10
2019-02-19T10:29:43.815Z,15.07
2019-02-19T10:32:50.233Z,10.43
2019-02-19T10:35:56.755Z,14.50
2019-02-19T10:39:04.789Z,22.17
2019-02-19T10:42:11.406Z,17.53
2019-02-19T10:45:18.700Z,14.63
2019-02-19T10:48:25.519Z,16.17
2019-02-19T10:51:35.299Z,19.67
2019-02-19T10:54:42.655Z,11.27
2019-02-19T10:57:51.256Z,14.00
2019-02-19T11:00:59.198Z,12.57
2019-02-19T11:04:08.475Z,13.30
2019-02-19T11:07:16.197Z,11.70
2019-02-19T11:10:28.062Z,18.17
2019-02-19T11:13:40.142Z,14.90
2019-02-19T11:16:47.786Z,14.50
2019-02-19T11:19:56.669Z,15.57
2019-02-19T11:23:06.115Z,13.07
2019-02-19T11:26:17.079Z,13.47
2019-02-19T11:29:24.441Z,13.50
2019-02-19T11:32:31.121Z,20.40
2019-02-19T11:35:37.873Z,26.37
2019-02-19T11:38:44.820Z,17.33
2019-02-19T11:41:52.252Z,14.80
2019-02-19T11:44:59.749Z,10.17
2019-02-19T11:48:06.468Z,10.43
2019-02-19T11:51:12.942Z,9.87
2019-02-19T11:54:19.717Z,9.00
2019-02-19T11:57:26.380Z,10.83
2019-02-19T12:00:35.306Z,8.50
2019-02-19T12:03:41.963Z,7.63
2019-02-19T12:06:48.357Z,9.07
2019-02-19T12:09:54.989Z,8.90
2019-02-19T12:13:02.581Z,8.13
2019-02-19T12:16:09.351Z,6.40
2019-02-19T12:19:16.060Z,11.87
2019-02-19T12:22:22.880Z,5.50
2019-02-19T12:25:29.374Z,7.33
2019-02-19T12:28:36.157Z,4.97
2019-02-19T12:31:43.203Z,5.83
2019-02-19T12:34:49.728Z,10.53
2019-02-19T12:37:56.441Z,4.47
2019-02-19T12:41:02.928Z,6.53
2019-02-19T12:44:09.789Z,7.07
2019-02-19T12:47:16.208Z,5.23
2019-02-19T12:50:22.643Z,5.40
2019-02-19T12:53:29.515Z,6.40
2019-02-19T12:56:37.232Z,4.60
2019-02-19T12:59:43.988Z,5.93
2019-02-19T13:02:50.743Z,7.67
2019-02-19T13:05:57.445Z,11.90
2019-02-19T13:09:06.001Z,5.73
2019-02-19T13:12:12.974Z,17.07
2019-02-19T13:15:19.931Z,6.77
2019-02-19T13:18:26.809Z,5.90
2019-02-19T13:21:34.296Z,6.20
2019-02-19T13:24:41.067Z,8.87
2019-02-19T13:27:48.242Z,6.20
2019-02-19T13:30:55.240Z,5.27
2019-02-19T13:34:02.524Z,8.20
2019-02-19T13:37:09.233Z,7.93
2019-02-19T13:40:16.302Z,6.23
2019-02-19T13:43:23.685Z,5.40
2019-02-19T13:46:31.015Z,6.43
2019-02-19T13:49:37.728Z,5.40
2019-02-19T13:52:52.887Z,7.20
2019-02-19T13:56:01.876Z,10.00
2019-02-19T13:59:11.294Z,9.83
2019-02-19T14:02:19.639Z,5.83
2019-02-19T14:05:26.298Z,5.67
2019-02-19T14:08:33.211Z,7.80
2019-02-19T14:11:39.734Z,10.13
2019-02-19T14:14:51.119Z,5.07
2019-02-19T14:17:58.668Z,6.37
2019-02-19T14:21:23.316Z,8.40
2019-02-19T14:25:01.875Z,5.57
2019-02-19T14:28:46.995Z,5.63
2019-02-19T14:32:09.371Z,9.13
2019-02-19T14:35:35.169Z,7.43
2019-02-19T14:38:59.327Z,6.40
2019-02-19T14:42:32.690Z,7.30
2019-02-19T14:46:16.314Z,9.60
2019-02-19T14:49:37.349Z,5.93
2019-02-19T14:53:03.848Z,9.97
2019-02-19T14:56:29.439Z,7.67
2019-02-19T15:00:07.468Z,8.43
2019-02-19T15:03:41.960Z,10.17
2019-02-19T15:07:07.936Z,12.83
2019-02-19T15:10:48.763Z,14.33
2019-02-19T15:14:17.854Z,13.00
2019-02-19T15:17:46.197Z,10.80
2019-02-19T15:21:02.847Z,9.67
2019-02-19T15:24:26.613Z,7.23
2019-02-19T15:27:38.239Z,14.03
2019-02-19T15:30:56.253Z,14.47
2019-02-19T15:34:20.277Z,11.63
2019-02-19T15:37:44.702Z,9.57
2019-02-19T15:41:07.041Z,10.47
2019-02-19T15:44:47.795Z,14.27
2019-02-19T15:48:16.698Z,9.37
2019-02-19T15:51:51.533Z,9.43
2019-02-19T15:55:15.703Z,8.83
2019-02-19T15:58:40.107Z,14.60
2019-02-19T16:02:06.294Z,9.93
2019-02-19T16:05:32.160Z,12.03
2019-02-19T16:09:01.293Z,14.30
2019-02-19T16:12:21.624Z,12.97
2019-02-19T16:15:48.481Z,10.00
2019-02-19T16:19:20.194Z,14.83
2019-02-19T16:22:48.952Z,15.70
2019-02-19T16:26:18.795Z,14.43
2019-02-19T16:29:44.538Z,12.20
2019-02-19T16:33:25.255Z,15.03
2019-02-19T16:36:50.819Z,16.07
2019-02-19T16:40:05.469Z,18.60
2019-02-19T16:43:43.363Z,14.03
2019-02-19T16:47:15.243Z,8.53
2019-02-19T16:50:44.021Z,17.27
2019-02-19T16:54:22.328Z,16.37
2019-02-19T16:57:37.500Z,10.47
2019-02-19T17:01:02.502Z,10.27
2019-02-19T17:04:22.017Z,13.73
2019-02-19T17:07:36.977Z,10.90
2019-02-19T17:10:57.167Z,12.17
2019-02-19T17:14:22.112Z,15.80
2019-02-19T17:17:45.737Z,12.43
2019-02-19T17:21:08.900Z,16.00
2019-02-19T17:24:29.404Z,9.17
2019-02-19T17:27:53.161Z,12.60
2019-02-19T17:31:34.764Z,11.70
2019-02-19T17:34:58.975Z,12.60
2019-02-19T17:38:25.091Z,9.57
2019-02-19T17:41:39.391Z,11.67
2019-02-19T17:45:04.430Z,10.00
2019-02-19T17:48:33.379Z,10.90
2019-02-19T17:52:02.599Z,9.37
2019-02-19T17:55:29.696Z,10.60
2019-02-19T17:58:44.810Z,10.87
2019-02-19T18:02:22.666Z,11.30
2019-02-19T18:05:47.276Z,13.97
2019-02-19T18:09:07.158Z,8.77
2019-02-19T18:12:33.800Z,9.77
2019-02-19T18:16:11.781Z,9.67
2019-02-19T18:19:18.894Z,12.93
2019-02-19T18:22:26.192Z,11.33
2019-02-19T18:25:32.769Z,10.00
2019-02-19T18:28:39.546Z,10.00
2019-02-19T18:31:46.848Z,9.63
2019-02-19T18:34:53.355Z,7.07
2019-02-19T18:38:00.230Z,11.50
2019-02-19T18:41:06.773Z,7.23
2019-02-19T18:44:13.533Z,9.73
2019-02-19T18:47:21.913Z,7.77
2019-02-19T18:50:29.366Z,11.10
2019-02-19T18:53:35.745Z,8.20
2019-02-19T18:56:43.006Z,9.07
2019-02-19T18:59:52.934Z,13.10
2019-02-19T19:03:00.099Z,9.30
2019-02-19T19:06:06.995Z,18.23
2019-02-19T19:09:14.243Z,14.83
2019-02-19T19:12:21.264Z,12.27
2019-02-19T19:15:28.090Z,8.73
2019-02-19T19:18:35.165Z,9.30
2019-02-19T19:21:45.250Z,12.53
2019-02-19T19:24:52.514Z,10.47
2019-02-19T19:27:59.315Z,8.40
2019-02-19T19:31:06.665Z,16.00
2019-02-19T19:34:13.490Z,16.40
2019-02-19T19:37:20.266Z,10.00
2019-02-19T19:40:27.201Z,13.07
2019-02-19T19:43:34.142Z,14.30
2019-02-19T19:46:40.698Z,9.87
2019-02-19T19:49:47.172Z,16.77
2019-02-19T19:52:58.542Z,11.00
2019-02-19T19:56:05.512Z,13.27
2019-02-19T19:59:12.107Z,8.90
2019-02-19T20:02:20.019Z,11.43
2019-02-19T20:05:28.267Z,8.17
2019-02-19T20:08:35.491Z,14.33
2019-02-19T20:11:43.564Z,12.70
2019-02-19T20:14:51.065Z,9.80
2019-02-19T20:17:58.186Z,13.07
2019-02-19T20:21:04.999Z,17.93
2019-02-19T20:24:12.120Z,13.20
2019-02-19T20:27:18.885Z,10.80
2019-02-19T20:30:26.156Z,10.17
2019-02-19T20:33:33.047Z,11.17
2019-02-19T20:36:40.125Z,11.50
2019-02-19T20:39:47.883Z,11.57
2019-02-19T20:42:55.166Z,12.53
2019-02-19T20:46:02.524Z,9.47
2019-02-19T20:49:09.635Z,11.23
2019-02-19T20:52:16.647Z,10.27
2019-02-19T20:55:23.218Z,16.70
2019-02-19T20:58:30.179Z,13.03
2019-02-19T21:01:40.769Z,14.33
2019-02-19T21:04:48.162Z,8.60
2019-02-19T21:07:54.771Z,11.87
2019-02-19T21:11:01.393Z,9.80
2019-02-19T21:14:08.581Z,11.57
2019-02-19T21:17:14.951Z,9.50
2019-02-19T21:20:24.404Z,7.37
2019-02-19T21:23:31.616Z,11.90
2019-02-19T21:26:38.933Z,11.60
2019-02-19T21:29:46.299Z,10.67
2019-02-19T21:32:54.327Z,8.17
2019-02-19T21:36:01.151Z,12.10
2019-02-19T21:39:07.864Z,11.50
2019-02-19T21:42:15.835Z,7.20
2019-02-19T21:45:22.580Z,10.20
2019-02-19T21:48:29.577Z,10.67
2019-02-19T21:51:37.356Z,11.07
2019-02-19T21:54:44.523Z,11.40
2019-02-19T21:57:50.923Z,7.33
2019-02-19T22:00:57.730Z,10.40
2019-02-19T22:04:04.211Z,8.20
2019-02-19T22:07:11.061Z,9.50
2019-02-19T22:10:17.503Z,10.63
2019-02-19T22:13:24.660Z,16.20
2019-02-19T22:16:32.229Z,10.73
2019-02-19T22:19:40.599Z,12.40
2019-02-19T22:22:47.346Z,8.70
2019-02-19T22:25:53.729Z,9.93
2019-02-19T22:29:00.493Z,13.40
2019-02-19T22:32:08.097Z,10.63
2019-02-19T22:35:15.784Z,7.00
2019-02-19T22:38:22.125Z,8.80
2019-02-19T22:41:28.739Z,7.57
2019-02-19T22:44:35.526Z,16.70
2019-02-19T22:47:42.134Z,14.13
2019-02-19T22:50:49.724Z,16.37
2019-02-19T22:54:10.048Z,8.03
2019-02-19T22:57:16.685Z,13.90
2019-02-19T23:00:47.319Z,12.93
2019-02-19T23:03:56.037Z,17.70
2019-02-19T23:07:02.578Z,14.27
2019-02-19T23:10:09.383Z,19.30
2019-02-19T23:13:16.245Z,11.77
2019-02-19T23:16:22.676Z,13.00
2019-02-19T23:19:28.902Z,17.90
2019-02-19T23:22:35.572Z,11.03
2019-02-19T23:25:42.023Z,13.77
2019-02-19T23:28:48.508Z,13.20
2019-02-19T23:31:55.096Z,13.73
2019-02-19T23:35:15.912Z,36.10
2019-02-19T23:38:22.378Z,29.37
2019-02-19T23:41:29.741Z,23.00
2019-02-19T23:44:36.532Z,30.10
2019-02-19T23:47:43.376Z,24.03
2019-02-19T23:50:50.177Z,26.70
2019-02-19T23:53:57.400Z,26.17
2019-02-19T23:57:03.841Z,25.70
